sensor_id;sensor_type;location;lat;lon;timestamp;pressure;altitude;pressure_sealevel;temperature;humidity
7990;BME280;4040;42.848;23.034;2022-07-18T00:01:36;95638.06;;;14.62;100.00
7990;BME280;4040;42.848;23.034;2022-07-18T00:07:24;95627.59;;;14.64;100.00
7990;BME280;4040;42.848;23.034;2022-07-18T00:13:14;95626.94;;;14.53;100.00
7990;BME280;4040;42.848;23.034;2022-07-18T00:19:03;95625.59;;;14.01;100.00
7990;BME280;4040;42.848;23.034;2022-07-18T00:24:53;95614.19;;;13.39;100.00
7990;BME280;4040;42.848;23.034;2022-07-18T00:30:43;95624.28;;;13.35;100.00
7990;BME280;4040;42.848;23.034;2022-07-18T00:36:31;95623.22;;;13.22;100.00
7990;BME280;4040;42.848;23.034;2022-07-18T00:42:20;95605.78;;;13.30;100.00
7990;BME280;4040;42.848;23.034;2022-07-18T00:48:11;95632.84;;;13.30;100.00
7990;BME280;4040;42.848;23.034;2022-07-18T00:54:00;95622.84;;;13.20;100.00
7990;BME280;4040;42.848;23.034;2022-07-18T00:59:50;95621.25;;;13.26;100.00
7990;BME280;4040;42.848;23.034;2022-07-18T01:10:20;95610.00;;;12.69;100.00
7990;BME280;4040;42.848;23.034;2022-07-18T01:16:09;95611.16;;;12.72;100.00
7990;BME280;4040;42.848;23.034;2022-07-18T01:21:59;95624.34;;;12.63;100.00
7990;BME280;4040;42.848;23.034;2022-07-18T01:27:48;95621.84;;;12.14;100.00
7990;BME280;4040;42.848;23.034;2022-07-18T01:33:37;95611.09;;;12.04;100.00
7990;BME280;4040;42.848;23.034;2022-07-18T01:39:27;95616.13;;;11.95;100.00
7990;BME280;4040;42.848;23.034;2022-07-18T01:45:16;95616.06;;;12.09;100.00
7990;BME280;4040;42.848;23.034;2022-07-18T01:51:06;95626.56;;;11.86;100.00
7990;BME280;4040;42.848;23.034;2022-07-18T01:56:59;95615.75;;;11.89;100.00
7990;BME280;4040;42.848;23.034;2022-07-18T02:02:48;95608.09;;;11.63;100.00
7990;BME280;4040;42.848;23.034;2022-07-18T02:13:00;95620.44;;;11.57;100.00
7990;BME280;4040;42.848;23.034;2022-07-18T02:18:49;95608.06;;;11.70;100.00
7990;BME280;4040;42.848;23.034;2022-07-18T02:24:38;95619.25;;;11.72;100.00
7990;BME280;4040;42.848;23.034;2022-07-18T02:30:29;95617.69;;;11.78;100.00
7990;BME280;4040;42.848;23.034;2022-07-18T02:36:27;95633.53;;;11.66;100.00
7990;BME280;4040;42.848;23.034;2022-07-18T02:42:16;95621.97;;;11.58;100.00
7990;BME280;4040;42.848;23.034;2022-07-18T02:48:06;95631.19;;;11.68;100.00
7990;BME280;4040;42.848;23.034;2022-07-18T02:53:56;95630.44;;;11.67;100.00
7990;BME280;4040;42.848;23.034;2022-07-18T02:59:44;95648.19;;;11.61;100.00
7990;BME280;4040;42.848;23.034;2022-07-18T03:05:35;95648.19;;;11.61;100.00
7990;BME280;4040;42.848;23.034;2022-07-18T03:15:45;95655.09;;;11.55;100.00
7990;BME280;4040;42.848;23.034;2022-07-18T03:21:36;95658.97;;;11.72;100.00
7990;BME280;4040;42.848;23.034;2022-07-18T03:27:24;95665.13;;;11.72;100.00
7990;BME280;4040;42.848;23.034;2022-07-18T03:33:13;95633.91;;;11.43;100.00
7990;BME280;4040;42.848;23.034;2022-07-18T03:39:04;95659.75;;;11.65;100.00
7990;BME280;4040;42.848;23.034;2022-07-18T03:44:52;95662.81;;;11.57;100.00
7990;BME280;4040;42.848;23.034;2022-07-18T03:50:41;95662.03;;;11.56;100.00
7990;BME280;4040;42.848;23.034;2022-07-18T03:56:32;95657.44;;;11.74;100.00
7990;BME280;4040;42.848;23.034;2022-07-18T04:02:20;95660.88;;;11.71;100.00
7990;BME280;4040;42.848;23.034;2022-07-18T04:08:09;95654.31;;;11.86;100.00
7990;BME280;4040;42.848;23.034;2022-07-18T04:18:21;95661.25;;;11.73;100.00
7990;BME280;4040;42.848;23.034;2022-07-18T04:24:10;95651.97;;;12.02;100.00
7990;BME280;4040;42.848;23.034;2022-07-18T04:29:59;95654.22;;;12.28;100.00
7990;BME280;4040;42.848;23.034;2022-07-18T04:35:49;95643.09;;;12.91;100.00
7990;BME280;4040;42.848;23.034;2022-07-18T04:41:38;95627.66;;;14.27;100.00
7990;BME280;4040;42.848;23.034;2022-07-18T04:47:27;95631.56;;;16.50;96.45
7990;BME280;4040;42.848;23.034;2022-07-18T04:53:18;95614.25;;;18.23;83.22
7990;BME280;4040;42.848;23.034;2022-07-18T04:59:06;95625.34;;;18.73;75.95
7990;BME280;4040;42.848;23.034;2022-07-18T05:04:56;95630.75;;;19.64;70.91
7990;BME280;4040;42.848;23.034;2022-07-18T05:10:46;95623.78;;;19.97;68.62
7990;BME280;4040;42.848;23.034;2022-07-18T05:20:56;95614.34;;;20.23;66.83
7990;BME280;4040;42.848;23.034;2022-07-18T05:26:47;95573.59;;;20.67;64.46
7990;BME280;4040;42.848;23.034;2022-07-18T05:32:36;95632.50;;;22.03;63.81
7990;BME280;4040;42.848;23.034;2022-07-18T05:38:24;95626.56;;;24.33;52.41
7990;BME280;4040;42.848;23.034;2022-07-18T05:44:15;95620.22;;;26.21;46.23
7990;BME280;4040;42.848;23.034;2022-07-18T05:50:08;95618.13;;;28.30;44.58
7990;BME280;4040;42.848;23.034;2022-07-18T05:55:56;95612.66;;;29.43;39.75
7990;BME280;4040;42.848;23.034;2022-07-18T06:01:47;95633.59;;;29.99;38.20
7990;BME280;4040;42.848;23.034;2022-07-18T06:07:35;95625.88;;;30.55;35.26
7990;BME280;4040;42.848;23.034;2022-07-18T06:13:24;95620.47;;;31.25;34.12
7990;BME280;4040;42.848;23.034;2022-07-18T06:23:36;95600.44;;;30.29;32.05
7990;BME280;4040;42.848;23.034;2022-07-18T06:29:25;95607.81;;;30.21;29.94
7990;BME280;4040;42.848;23.034;2022-07-18T06:35:14;95585.09;;;30.06;32.02
7990;BME280;4040;42.848;23.034;2022-07-18T06:41:04;95593.13;;;31.29;27.18
7990;BME280;4040;42.848;23.034;2022-07-18T06:46:53;95601.50;;;32.12;30.68
7990;BME280;4040;42.848;23.034;2022-07-18T06:52:44;95596.16;;;32.14;30.59
7990;BME280;4040;42.848;23.034;2022-07-18T06:58:34;95595.56;;;34.13;27.47
7990;BME280;4040;42.848;23.034;2022-07-18T07:04:22;95584.91;;;32.85;25.67
7990;BME280;4040;42.848;23.034;2022-07-18T07:10:11;95574.47;;;32.67;27.07
7990;BME280;4040;42.848;23.034;2022-07-18T07:16:02;95575.38;;;32.38;26.67
7990;BME280;4040;42.848;23.034;2022-07-18T07:26:13;95557.06;;;32.98;25.04
7990;BME280;4040;42.848;23.034;2022-07-18T07:32:05;95573.34;;;33.13;27.81
7990;BME280;4040;42.848;23.034;2022-07-18T07:37:55;95570.25;;;33.79;25.34
7990;BME280;4040;42.848;23.034;2022-07-18T07:43:44;95577.34;;;33.80;24.53
7990;BME280;4040;42.848;23.034;2022-07-18T07:49:34;95563.66;;;33.64;24.42
7990;BME280;4040;42.848;23.034;2022-07-18T07:55:24;95569.84;;;33.88;25.05
7990;BME280;4040;42.848;23.034;2022-07-18T08:01:13;95572.44;;;34.51;22.42
7990;BME280;4040;42.848;23.034;2022-07-18T08:07:06;95553.19;;;34.09;21.88
7990;BME280;4040;42.848;23.034;2022-07-18T08:12:55;95569.88;;;33.25;25.42
7990;BME280;4040;42.848;23.034;2022-07-18T08:18:44;95574.47;;;33.86;21.89
7990;BME280;4040;42.848;23.034;2022-07-18T08:28:56;95572.44;;;34.51;25.23
7990;BME280;4040;42.848;23.034;2022-07-18T08:34:45;95570.41;;;34.65;25.62
7990;BME280;4040;42.848;23.034;2022-07-18T08:40:34;95554.88;;;35.64;24.72
7990;BME280;4040;42.848;23.034;2022-07-18T08:46:26;95566.13;;;35.51;23.24
7990;BME280;4040;42.848;23.034;2022-07-18T08:52:16;95563.59;;;36.01;23.59
7990;BME280;4040;42.848;23.034;2022-07-18T08:58:04;95548.91;;;34.21;24.93
7990;BME280;4040;42.848;23.034;2022-07-18T09:03:55;95563.66;;;35.27;24.71
7990;BME280;4040;42.848;23.034;2022-07-18T09:10:03;95566.84;;;35.44;22.33
7990;BME280;4040;42.848;23.034;2022-07-18T09:15:59;95550.53;;;36.04;20.96
7990;BME280;4040;42.848;23.034;2022-07-18T09:21:50;95542.50;;;35.39;23.01
7990;BME280;4040;42.848;23.034;2022-07-18T09:24:17;95541.56;;;35.77;23.88
7990;BME280;4040;42.848;23.034;2022-07-18T09:30:20;95554.47;;;36.36;21.25
7990;BME280;4040;42.848;23.034;2022-07-18T09:36:10;95558.25;;;33.97;22.87
7990;BME280;4040;42.848;23.034;2022-07-18T09:42:14;95551.25;;;34.56;23.18
7990;BME280;4040;42.848;23.034;2022-07-18T09:48:04;95545.84;;;35.78;23.48
7990;BME280;4040;42.848;23.034;2022-07-18T09:53:54;95547.00;;;35.83;21.87
7990;BME280;4040;42.848;23.034;2022-07-18T09:59:46;95540.19;;;36.19;21.08
7990;BME280;4040;42.848;23.034;2022-07-18T10:05:37;95546.13;;;32.63;21.80
7990;BME280;4040;42.848;23.034;2022-07-18T10:11:26;95536.59;;;33.27;26.55
7990;BME280;4040;42.848;23.034;2022-07-18T10:17:17;95525.13;;;35.61;24.50
7990;BME280;4040;42.848;23.034;2022-07-18T10:23:10;95537.81;;;34.02;22.92
7990;BME280;4040;42.848;23.034;2022-07-18T10:29:15;95536.00;;;32.24;23.30
7990;BME280;4040;42.848;23.034;2022-07-18T10:35:07;95525.19;;;30.16;25.79
7990;BME280;4040;42.848;23.034;2022-07-18T10:41:09;95519.53;;;30.38;26.22
7990;BME280;4040;42.848;23.034;2022-07-18T10:47:05;95517.31;;;30.77;25.99
7990;BME280;4040;42.848;23.034;2022-07-18T10:52:58;95522.84;;;29.25;27.18
7990;BME280;4040;42.848;23.034;2022-07-18T10:58:47;95517.44;;;28.44;27.75
7990;BME280;4040;42.848;23.034;2022-07-18T11:04:38;95512.75;;;28.08;28.78
7990;BME280;4040;42.848;23.034;2022-07-18T11:23:41;95504.38;;;27.44;31.87
7990;BME280;4040;42.848;23.034;2022-07-18T11:29:40;95489.00;;;27.38;29.37
7990;BME280;4040;42.848;23.034;2022-07-18T11:35:29;95492.00;;;27.76;30.12
7990;BME280;4040;42.848;23.034;2022-07-18T11:41:21;95462.63;;;27.48;30.98
7990;BME280;4040;42.848;23.034;2022-07-18T11:47:11;95474.47;;;27.48;32.99
7990;BME280;4040;42.848;23.034;2022-07-18T11:53:01;95474.16;;;27.88;30.83
7990;BME280;4040;42.848;23.034;2022-07-18T11:58:52;95466.94;;;28.07;31.23
7990;BME280;4040;42.848;23.034;2022-07-18T12:04:40;95460.03;;;27.75;31.09
7990;BME280;4040;42.848;23.034;2022-07-18T12:10:30;95454.91;;;27.68;33.52
7990;BME280;4040;42.848;23.034;2022-07-18T12:16:29;95455.28;;;27.81;32.48
7990;BME280;4040;42.848;23.034;2022-07-18T12:22:18;95457.47;;;27.24;32.99
7990;BME280;4040;42.848;23.034;2022-07-18T12:28:15;95460.53;;;27.37;32.79
7990;BME280;4040;42.848;23.034;2022-07-18T12:34:10;95444.59;;;27.63;34.91
7990;BME280;4040;42.848;23.034;2022-07-18T12:40:00;95433.53;;;27.63;34.15
7990;BME280;4040;42.848;23.034;2022-07-18T12:45:51;95443.66;;;27.77;33.05
7990;BME280;4040;42.848;23.034;2022-07-18T12:51:41;95445.66;;;27.71;32.00
7990;BME280;4040;42.848;23.034;2022-07-18T12:57:30;95435.28;;;27.61;35.20
7990;BME280;4040;42.848;23.034;2022-07-18T13:03:18;95445.00;;;27.45;37.54
7990;BME280;4040;42.848;23.034;2022-07-18T13:09:08;95434.66;;;27.88;36.48
7990;BME280;4040;42.848;23.034;2022-07-18T13:14:57;95434.41;;;27.86;37.74
7990;BME280;4040;42.848;23.034;2022-07-18T13:24:59;95443.81;;;27.15;38.55
7990;BME280;4040;42.848;23.034;2022-07-18T13:30:48;95445.72;;;26.98;40.18
7990;BME280;4040;42.848;23.034;2022-07-18T13:36:37;95441.38;;;27.23;40.40
7990;BME280;4040;42.848;23.034;2022-07-18T13:42:27;95436.66;;;27.34;38.79
7990;BME280;4040;42.848;23.034;2022-07-18T13:48:16;95444.44;;;27.30;38.72
7990;BME280;4040;42.848;23.034;2022-07-18T13:54:05;95440.16;;;27.29;39.47
7990;BME280;4040;42.848;23.034;2022-07-18T14:00:08;95432.13;;;27.00;38.69
7990;BME280;4040;42.848;23.034;2022-07-18T14:05:57;95442.34;;;26.58;39.32
7990;BME280;4040;42.848;23.034;2022-07-18T14:11:46;95433.53;;;26.54;40.23
7990;BME280;4040;42.848;23.034;2022-07-18T14:17:36;95433.97;;;26.78;39.52
7990;BME280;4040;42.848;23.034;2022-07-18T14:27:46;95434.19;;;26.74;39.45
7990;BME280;4040;42.848;23.034;2022-07-18T14:33:36;95426.91;;;26.71;38.98
7990;BME280;4040;42.848;23.034;2022-07-18T14:39:25;95430.09;;;26.64;38.84
7990;BME280;4040;42.848;23.034;2022-07-18T14:45:14;95426.81;;;26.60;38.43
7990;BME280;4040;42.848;23.034;2022-07-18T14:51:04;95430.31;;;26.55;39.55
7990;BME280;4040;42.848;23.034;2022-07-18T14:56:53;95417.59;;;26.43;39.14
7990;BME280;4040;42.848;23.034;2022-07-18T15:02:41;95409.72;;;26.56;40.37
7990;BME280;4040;42.848;23.034;2022-07-18T15:08:31;95376.16;;;26.43;38.89
7990;BME280;4040;42.848;23.034;2022-07-18T15:14:20;95397.44;;;26.63;39.28
7990;BME280;4040;42.848;23.034;2022-07-18T15:20:10;95402.66;;;26.55;39.06
7990;BME280;4040;42.848;23.034;2022-07-18T15:22:37;95402.94;;;26.57;39.48
7990;BME280;4040;42.848;23.034;2022-07-18T15:28:28;95402.81;;;26.46;39.85
7990;BME280;4040;42.848;23.034;2022-07-18T15:34:16;95377.66;;;26.14;39.03
7990;BME280;4040;42.848;23.034;2022-07-18T15:40:06;95401.38;;;26.26;39.72
7990;BME280;4040;42.848;23.034;2022-07-18T15:45:56;95374.97;;;26.19;40.03
7990;BME280;4040;42.848;23.034;2022-07-18T15:51:45;95395.75;;;26.15;40.23
7990;BME280;4040;42.848;23.034;2022-07-18T15:57:35;95392.59;;;26.02;40.61
7990;BME280;4040;42.848;23.034;2022-07-18T16:03:26;95403.31;;;25.94;41.27
7990;BME280;4040;42.848;23.034;2022-07-18T16:09:15;95400.06;;;25.96;41.31
7990;BME280;4040;42.848;23.034;2022-07-18T16:15:04;95401.31;;;25.75;41.49
7990;BME280;4040;42.848;23.034;2022-07-18T16:20:55;95407.53;;;25.70;42.36
7990;BME280;4040;42.848;23.034;2022-07-18T16:31:06;95391.16;;;25.61;42.17
7990;BME280;4040;42.848;23.034;2022-07-18T16:36:57;95402.00;;;25.50;42.52
7990;BME280;4040;42.848;23.034;2022-07-18T16:42:46;95403.09;;;25.18;43.56
7990;BME280;4040;42.848;23.034;2022-07-18T16:48:35;95399.47;;;24.92;43.58
7990;BME280;4040;42.848;23.034;2022-07-18T16:54:26;95412.97;;;24.90;44.29
7990;BME280;4040;42.848;23.034;2022-07-18T17:00:16;95420.41;;;24.84;44.16
7990;BME280;4040;42.848;23.034;2022-07-18T17:06:05;95414.63;;;24.82;44.33
7990;BME280;4040;42.848;23.034;2022-07-18T17:11:56;95433.28;;;24.58;45.05
7990;BME280;4040;42.848;23.034;2022-07-18T17:17:45;95420.91;;;24.39;46.03
7990;BME280;4040;42.848;23.034;2022-07-18T17:23:36;95427.38;;;24.36;46.96
7990;BME280;4040;42.848;23.034;2022-07-18T17:33:48;95438.91;;;23.96;48.23
7990;BME280;4040;42.848;23.034;2022-07-18T17:39:37;95437.06;;;23.79;49.25
7990;BME280;4040;42.848;23.034;2022-07-18T17:45:27;95433.13;;;23.71;49.07
7990;BME280;4040;42.848;23.034;2022-07-18T17:51:18;95429.59;;;23.56;49.54
7990;BME280;4040;42.848;23.034;2022-07-18T17:57:09;95430.72;;;23.26;50.40
7990;BME280;4040;42.848;23.034;2022-07-18T18:02:58;95434.78;;;23.07;50.78
7990;BME280;4040;42.848;23.034;2022-07-18T18:14:36;95435.81;;;22.86;51.48
7990;BME280;4040;42.848;23.034;2022-07-18T18:20:25;95432.19;;;22.80;51.90
7990;BME280;4040;42.848;23.034;2022-07-18T18:26:15;95442.66;;;22.58;52.74
7990;BME280;4040;42.848;23.034;2022-07-18T18:36:25;95461.63;;;22.29;54.01
7990;BME280;4040;42.848;23.034;2022-07-18T18:42:30;95477.50;;;21.98;56.53
7990;BME280;4040;42.848;23.034;2022-07-18T18:48:18;95454.63;;;21.56;59.39
7990;BME280;4040;42.848;23.034;2022-07-18T18:54:07;95487.44;;;21.20;66.73
7990;BME280;4040;42.848;23.034;2022-07-18T18:59:57;95496.25;;;20.76;71.29
7990;BME280;4040;42.848;23.034;2022-07-18T19:05:46;95505.28;;;20.34;80.04
7990;BME280;4040;42.848;23.034;2022-07-18T19:11:35;95511.75;;;19.84;90.75
7990;BME280;4040;42.848;23.034;2022-07-18T19:17:25;95519.81;;;19.54;98.76
7990;BME280;4040;42.848;23.034;2022-07-18T19:23:14;95525.75;;;19.40;97.99
7990;BME280;4040;42.848;23.034;2022-07-18T19:29:03;95517.16;;;18.79;100.00
7990;BME280;4040;42.848;23.034;2022-07-18T19:39:15;95520.09;;;18.59;100.00
7990;BME280;4040;42.848;23.034;2022-07-18T19:45:04;95522.97;;;18.27;100.00
7990;BME280;4040;42.848;23.034;2022-07-18T19:50:53;95525.94;;;17.76;100.00
7990;BME280;4040;42.848;23.034;2022-07-18T19:56:43;95536.84;;;17.76;100.00
7990;BME280;4040;42.848;23.034;2022-07-18T20:02:31;95542.00;;;17.58;100.00
7990;BME280;4040;42.848;23.034;2022-07-18T20:08:20;95547.09;;;17.08;100.00
7990;BME280;4040;42.848;23.034;2022-07-18T20:14:10;95559.47;;;16.77;100.00
7990;BME280;4040;42.848;23.034;2022-07-18T20:19:59;95557.63;;;16.90;100.00
7990;BME280;4040;42.848;23.034;2022-07-18T20:25:48;95556.09;;;16.89;100.00
7990;BME280;4040;42.848;23.034;2022-07-18T20:31:38;95556.53;;;17.04;100.00
7990;BME280;4040;42.848;23.034;2022-07-18T20:41:48;95562.69;;;16.72;100.00
7990;BME280;4040;42.848;23.034;2022-07-18T20:47:39;95559.44;;;16.61;100.00
7990;BME280;4040;42.848;23.034;2022-07-18T20:53:27;95568.31;;;16.81;100.00
7990;BME280;4040;42.848;23.034;2022-07-18T20:59:16;95517.84;;;15.86;100.00
7990;BME280;4040;42.848;23.034;2022-07-18T21:05:07;95531.06;;;15.42;100.00
7990;BME280;4040;42.848;23.034;2022-07-18T21:10:56;95566.22;;;15.72;100.00
7990;BME280;4040;42.848;23.034;2022-07-18T21:16:44;95566.06;;;15.82;100.00
7990;BME280;4040;42.848;23.034;2022-07-18T21:22:37;95560.00;;;15.75;100.00
7990;BME280;4040;42.848;23.034;2022-07-18T21:28:26;95567.63;;;15.60;100.00
7990;BME280;4040;42.848;23.034;2022-07-18T21:34:14;95568.84;;;15.56;100.00
7990;BME280;4040;42.848;23.034;2022-07-18T21:44:26;95565.97;;;15.43;100.00
7990;BME280;4040;42.848;23.034;2022-07-18T21:50:15;95560.16;;;15.19;100.00
7990;BME280;4040;42.848;23.034;2022-07-18T21:56:04;95557.19;;;15.10;100.00
7990;BME280;4040;42.848;23.034;2022-07-18T22:08:38;95566.72;;;14.95;100.00
7990;BME280;4040;42.848;23.034;2022-07-18T22:14:26;95559.81;;;14.90;100.00
7990;BME280;4040;42.848;23.034;2022-07-18T22:20:15;95561.50;;;14.81;100.00
7990;BME280;4040;42.848;23.034;2022-07-18T22:26:06;95558.44;;;14.79;100.00
7990;BME280;4040;42.848;23.034;2022-07-18T22:31:54;95558.63;;;14.65;100.00
7990;BME280;4040;42.848;23.034;2022-07-18T22:37:43;95561.47;;;14.58;100.00
7990;BME280;4040;42.848;23.034;2022-07-18T22:43:33;95559.66;;;14.48;100.00
7990;BME280;4040;42.848;23.034;2022-07-18T22:49:22;95560.06;;;14.46;100.00
7990;BME280;4040;42.848;23.034;2022-07-18T22:55:10;95532.25;;;14.09;100.00
7990;BME280;4040;42.848;23.034;2022-07-18T23:01:01;95550.22;;;13.96;100.00
7990;BME280;4040;42.848;23.034;2022-07-18T23:03:28;95564.94;;;13.95;100.00
7990;BME280;4040;42.848;23.034;2022-07-18T23:09:17;95558.75;;;13.91;100.00
7990;BME280;4040;42.848;23.034;2022-07-18T23:15:06;95521.19;;;13.63;100.00
7990;BME280;4040;42.848;23.034;2022-07-18T23:20:56;95560.22;;;13.99;100.00
7990;BME280;4040;42.848;23.034;2022-07-18T23:26:45;95556.44;;;13.93;100.00
7990;BME280;4040;42.848;23.034;2022-07-18T23:32:34;95560.03;;;13.83;100.00
7990;BME280;4040;42.848;23.034;2022-07-18T23:38:24;95556.94;;;13.81;100.00
7990;BME280;4040;42.848;23.034;2022-07-18T23:44:13;95542.13;;;13.55;100.00
7990;BME280;4040;42.848;23.034;2022-07-18T23:50:01;95556.38;;;13.63;100.00
7990;BME280;4040;42.848;23.034;2022-07-18T23:56:05;95555.09;;;13.71;100.00
